sensor_id;sensor_type;location;lat;lon;timestamp;P1;durP1;ratioP1;P2;durP2;ratioP2
20824;SDS011;10573;50.936;6.978;2022-08-19T00:01:29;10.30;;;8.77;;
20824;SDS011;10573;50.936;6.978;2022-08-19T00:03:58;10.93;;;8.57;;
20824;SDS011;10573;50.936;6.978;2022-08-19T00:06:28;10.15;;;8.07;;
20824;SDS011;10573;50.936;6.978;2022-08-19T00:08:55;11.70;;;7.87;;
20824;SDS011;10573;50.936;6.978;2022-08-19T00:11:22;9.45;;;7.68;;
20824;SDS011;10573;50.936;6.978;2022-08-19T00:13:49;10.68;;;7.60;;
20824;SDS011;10573;50.936;6.978;2022-08-19T00:16:15;10.43;;;7.85;;
20824;SDS011;10573;50.936;6.978;2022-08-19T00:18:43;10.30;;;8.52;;
20824;SDS011;10573;50.936;6.978;2022-08-19T00:21:08;12.48;;;8.55;;
20824;SDS011;10573;50.936;6.978;2022-08-19T00:23:35;11.63;;;8.55;;
20824;SDS011;10573;50.936;6.978;2022-08-19T00:26:02;9.50;;;8.30;;
20824;SDS011;10573;50.936;6.978;2022-08-19T00:28:31;12.43;;;8.45;;
20824;SDS011;10573;50.936;6.978;2022-08-19T00:30:58;9.38;;;8.40;;
20824;SDS011;10573;50.936;6.978;2022-08-19T00:33:24;11.13;;;8.05;;
20824;SDS011;10573;50.936;6.978;2022-08-19T00:35:50;9.57;;;8.68;;
20824;SDS011;10573;50.936;6.978;2022-08-19T00:38:16;14.00;;;9.27;;
20824;SDS011;10573;50.936;6.978;2022-08-19T00:40:43;10.43;;;9.20;;
20824;SDS011;10573;50.936;6.978;2022-08-19T00:43:11;14.32;;;10.10;;
20824;SDS011;10573;50.936;6.978;2022-08-19T00:45:38;12.43;;;8.55;;
20824;SDS011;10573;50.936;6.978;2022-08-19T00:48:07;11.25;;;9.10;;
20824;SDS011;10573;50.936;6.978;2022-08-19T00:50:33;11.50;;;9.07;;
20824;SDS011;10573;50.936;6.978;2022-08-19T00:53:00;12.07;;;8.43;;
20824;SDS011;10573;50.936;6.978;2022-08-19T00:55:29;12.25;;;9.30;;
20824;SDS011;10573;50.936;6.978;2022-08-19T00:57:58;11.98;;;9.02;;
20824;SDS011;10573;50.936;6.978;2022-08-19T01:00:28;9.70;;;8.55;;
20824;SDS011;10573;50.936;6.978;2022-08-19T01:02:54;11.98;;;9.45;;
20824;SDS011;10573;50.936;6.978;2022-08-19T01:05:21;12.93;;;9.27;;
20824;SDS011;10573;50.936;6.978;2022-08-19T01:07:53;9.10;;;7.82;;
20824;SDS011;10573;50.936;6.978;2022-08-19T01:10:21;14.70;;;9.50;;
20824;SDS011;10573;50.936;6.978;2022-08-19T01:12:50;12.20;;;8.27;;
20824;SDS011;10573;50.936;6.978;2022-08-19T01:15:19;12.63;;;9.32;;
20824;SDS011;10573;50.936;6.978;2022-08-19T01:17:48;12.40;;;8.40;;
20824;SDS011;10573;50.936;6.978;2022-08-19T01:20:16;10.60;;;8.45;;
20824;SDS011;10573;50.936;6.978;2022-08-19T01:25:19;11.55;;;9.02;;
20824;SDS011;10573;50.936;6.978;2022-08-19T01:27:48;12.52;;;8.68;;
20824;SDS011;10573;50.936;6.978;2022-08-19T01:30:20;13.23;;;10.20;;
20824;SDS011;10573;50.936;6.978;2022-08-19T01:32:50;13.50;;;10.93;;
20824;SDS011;10573;50.936;6.978;2022-08-19T01:35:15;16.23;;;11.30;;
20824;SDS011;10573;50.936;6.978;2022-08-19T01:37:49;16.85;;;12.70;;
20824;SDS011;10573;50.936;6.978;2022-08-19T01:40:18;25.63;;;14.90;;
20824;SDS011;10573;50.936;6.978;2022-08-19T01:42:49;22.83;;;15.77;;
20824;SDS011;10573;50.936;6.978;2022-08-19T01:45:16;21.23;;;15.27;;
20824;SDS011;10573;50.936;6.978;2022-08-19T01:47:42;21.03;;;15.97;;
20824;SDS011;10573;50.936;6.978;2022-08-19T01:50:08;20.98;;;14.82;;
20824;SDS011;10573;50.936;6.978;2022-08-19T01:52:36;21.88;;;15.82;;
20824;SDS011;10573;50.936;6.978;2022-08-19T01:55:03;23.87;;;16.23;;
20824;SDS011;10573;50.936;6.978;2022-08-19T01:57:30;23.52;;;15.93;;
20824;SDS011;10573;50.936;6.978;2022-08-19T01:59:55;25.53;;;15.67;;
20824;SDS011;10573;50.936;6.978;2022-08-19T02:02:21;19.90;;;14.38;;
20824;SDS011;10573;50.936;6.978;2022-08-19T02:04:47;20.37;;;13.80;;
20824;SDS011;10573;50.936;6.978;2022-08-19T02:07:12;17.85;;;13.90;;
20824;SDS011;10573;50.936;6.978;2022-08-19T02:09:38;16.43;;;11.73;;
20824;SDS011;10573;50.936;6.978;2022-08-19T02:12:04;14.93;;;12.77;;
20824;SDS011;10573;50.936;6.978;2022-08-19T02:14:33;14.95;;;12.30;;
20824;SDS011;10573;50.936;6.978;2022-08-19T02:17:00;16.33;;;12.32;;
20824;SDS011;10573;50.936;6.978;2022-08-19T02:19:26;15.40;;;12.33;;
20824;SDS011;10573;50.936;6.978;2022-08-19T02:21:51;14.10;;;12.50;;
20824;SDS011;10573;50.936;6.978;2022-08-19T02:24:17;13.93;;;12.50;;
20824;SDS011;10573;50.936;6.978;2022-08-19T02:26:42;17.20;;;12.30;;
20824;SDS011;10573;50.936;6.978;2022-08-19T02:29:08;15.33;;;12.83;;
20824;SDS011;10573;50.936;6.978;2022-08-19T02:31:33;15.70;;;12.35;;
20824;SDS011;10573;50.936;6.978;2022-08-19T02:33:59;15.97;;;12.50;;
20824;SDS011;10573;50.936;6.978;2022-08-19T02:36:25;14.43;;;12.00;;
20824;SDS011;10573;50.936;6.978;2022-08-19T02:38:51;17.27;;;12.77;;
20824;SDS011;10573;50.936;6.978;2022-08-19T02:41:19;15.20;;;12.98;;
20824;SDS011;10573;50.936;6.978;2022-08-19T02:43:47;15.90;;;12.73;;
20824;SDS011;10573;50.936;6.978;2022-08-19T02:46:14;20.25;;;14.38;;
20824;SDS011;10573;50.936;6.978;2022-08-19T02:48:43;14.70;;;13.10;;
20824;SDS011;10573;50.936;6.978;2022-08-19T02:51:08;17.13;;;13.63;;
20824;SDS011;10573;50.936;6.978;2022-08-19T02:53:41;15.80;;;13.63;;
20824;SDS011;10573;50.936;6.978;2022-08-19T02:56:06;17.97;;;14.40;;
20824;SDS011;10573;50.936;6.978;2022-08-19T02:58:32;16.40;;;14.20;;
20824;SDS011;10573;50.936;6.978;2022-08-19T03:00:58;17.92;;;14.43;;
20824;SDS011;10573;50.936;6.978;2022-08-19T03:03:23;18.47;;;13.83;;
20824;SDS011;10573;50.936;6.978;2022-08-19T03:05:49;17.15;;;14.35;;
20824;SDS011;10573;50.936;6.978;2022-08-19T03:08:15;17.50;;;13.73;;
20824;SDS011;10573;50.936;6.978;2022-08-19T03:10:41;17.80;;;14.15;;
20824;SDS011;10573;50.936;6.978;2022-08-19T03:13:09;17.60;;;13.27;;
20824;SDS011;10573;50.936;6.978;2022-08-19T03:15:39;15.68;;;13.48;;
20824;SDS011;10573;50.936;6.978;2022-08-19T03:18:06;17.90;;;13.52;;
20824;SDS011;10573;50.936;6.978;2022-08-19T03:20:31;15.07;;;12.87;;
20824;SDS011;10573;50.936;6.978;2022-08-19T03:22:57;15.00;;;12.77;;
20824;SDS011;10573;50.936;6.978;2022-08-19T03:25:23;18.42;;;13.27;;
20824;SDS011;10573;50.936;6.978;2022-08-19T03:27:48;17.87;;;13.80;;
20824;SDS011;10573;50.936;6.978;2022-08-19T03:30:14;17.20;;;14.00;;
20824;SDS011;10573;50.936;6.978;2022-08-19T03:32:39;17.00;;;13.97;;
20824;SDS011;10573;50.936;6.978;2022-08-19T03:35:05;18.70;;;13.27;;
20824;SDS011;10573;50.936;6.978;2022-08-19T03:37:31;16.75;;;13.88;;
20824;SDS011;10573;50.936;6.978;2022-08-19T03:39:57;17.93;;;14.27;;
20824;SDS011;10573;50.936;6.978;2022-08-19T03:42:22;17.20;;;13.88;;
20824;SDS011;10573;50.936;6.978;2022-08-19T03:44:48;17.23;;;13.83;;
20824;SDS011;10573;50.936;6.978;2022-08-19T03:47:14;15.55;;;13.45;;
20824;SDS011;10573;50.936;6.978;2022-08-19T03:49:40;18.35;;;13.43;;
20824;SDS011;10573;50.936;6.978;2022-08-19T03:52:05;16.03;;;13.50;;
20824;SDS011;10573;50.936;6.978;2022-08-19T03:54:34;17.30;;;14.50;;
20824;SDS011;10573;50.936;6.978;2022-08-19T03:56:59;16.70;;;14.02;;
20824;SDS011;10573;50.936;6.978;2022-08-19T03:59:26;18.63;;;13.80;;
20824;SDS011;10573;50.936;6.978;2022-08-19T04:01:57;20.20;;;15.00;;
20824;SDS011;10573;50.936;6.978;2022-08-19T04:04:25;21.33;;;13.48;;
20824;SDS011;10573;50.936;6.978;2022-08-19T04:06:51;17.10;;;13.90;;
20824;SDS011;10573;50.936;6.978;2022-08-19T04:09:17;15.93;;;13.50;;
20824;SDS011;10573;50.936;6.978;2022-08-19T04:11:45;17.73;;;13.90;;
20824;SDS011;10573;50.936;6.978;2022-08-19T04:14:14;17.55;;;15.02;;
20824;SDS011;10573;50.936;6.978;2022-08-19T04:16:41;19.87;;;14.27;;
20824;SDS011;10573;50.936;6.978;2022-08-19T04:19:09;21.90;;;15.70;;
20824;SDS011;10573;50.936;6.978;2022-08-19T04:21:36;20.77;;;18.40;;
20824;SDS011;10573;50.936;6.978;2022-08-19T04:24:02;39.47;;;30.10;;
20824;SDS011;10573;50.936;6.978;2022-08-19T04:26:29;36.13;;;27.02;;
20824;SDS011;10573;50.936;6.978;2022-08-19T04:28:57;33.63;;;24.92;;
20824;SDS011;10573;50.936;6.978;2022-08-19T04:31:26;35.00;;;27.02;;
20824;SDS011;10573;50.936;6.978;2022-08-19T04:33:56;40.00;;;31.42;;
20824;SDS011;10573;50.936;6.978;2022-08-19T04:36:27;40.75;;;30.88;;
20824;SDS011;10573;50.936;6.978;2022-08-19T04:38:56;43.05;;;32.58;;
20824;SDS011;10573;50.936;6.978;2022-08-19T04:41:23;43.93;;;32.47;;
20824;SDS011;10573;50.936;6.978;2022-08-19T04:44:07;42.70;;;32.75;;
20824;SDS011;10573;50.936;6.978;2022-08-19T04:46:33;42.63;;;33.95;;
20824;SDS011;10573;50.936;6.978;2022-08-19T04:48:59;39.87;;;30.60;;
20824;SDS011;10573;50.936;6.978;2022-08-19T04:51:26;43.70;;;32.63;;
20824;SDS011;10573;50.936;6.978;2022-08-19T04:53:52;40.97;;;31.45;;
20824;SDS011;10573;50.936;6.978;2022-08-19T04:56:18;44.43;;;32.63;;
20824;SDS011;10573;50.936;6.978;2022-08-19T04:58:45;43.40;;;32.15;;
20824;SDS011;10573;50.936;6.978;2022-08-19T05:01:12;43.30;;;31.73;;
20824;SDS011;10573;50.936;6.978;2022-08-19T05:03:46;44.70;;;33.83;;
20824;SDS011;10573;50.936;6.978;2022-08-19T05:06:13;48.10;;;35.73;;
20824;SDS011;10573;50.936;6.978;2022-08-19T05:08:40;44.92;;;34.25;;
20824;SDS011;10573;50.936;6.978;2022-08-19T05:11:12;44.55;;;33.55;;
20824;SDS011;10573;50.936;6.978;2022-08-19T05:13:45;46.15;;;34.38;;
20824;SDS011;10573;50.936;6.978;2022-08-19T05:16:12;41.60;;;31.17;;
20824;SDS011;10573;50.936;6.978;2022-08-19T05:18:38;44.55;;;33.13;;
20824;SDS011;10573;50.936;6.978;2022-08-19T05:21:24;45.33;;;33.88;;
20824;SDS011;10573;50.936;6.978;2022-08-19T05:24:09;47.13;;;35.03;;
20824;SDS011;10573;50.936;6.978;2022-08-19T05:26:35;46.27;;;36.23;;
20824;SDS011;10573;50.936;6.978;2022-08-19T05:29:04;48.80;;;36.58;;
20824;SDS011;10573;50.936;6.978;2022-08-19T05:31:30;48.20;;;35.92;;
20824;SDS011;10573;50.936;6.978;2022-08-19T05:33:56;44.50;;;35.75;;
20824;SDS011;10573;50.936;6.978;2022-08-19T05:36:23;47.15;;;34.83;;
20824;SDS011;10573;50.936;6.978;2022-08-19T05:38:50;45.42;;;33.80;;
20824;SDS011;10573;50.936;6.978;2022-08-19T05:41:17;43.50;;;32.27;;
20824;SDS011;10573;50.936;6.978;2022-08-19T05:43:43;44.17;;;34.13;;
20824;SDS011;10573;50.936;6.978;2022-08-19T05:46:08;44.67;;;33.77;;
20824;SDS011;10573;50.936;6.978;2022-08-19T05:48:43;43.33;;;32.83;;
20824;SDS011;10573;50.936;6.978;2022-08-19T05:51:08;46.78;;;33.08;;
20824;SDS011;10573;50.936;6.978;2022-08-19T05:53:34;43.57;;;32.43;;
20824;SDS011;10573;50.936;6.978;2022-08-19T05:56:10;44.75;;;32.92;;
20824;SDS011;10573;50.936;6.978;2022-08-19T05:58:38;44.00;;;32.05;;
20824;SDS011;10573;50.936;6.978;2022-08-19T06:01:04;46.15;;;31.23;;
20824;SDS011;10573;50.936;6.978;2022-08-19T06:03:35;41.15;;;31.73;;
20824;SDS011;10573;50.936;6.978;2022-08-19T06:06:03;38.15;;;30.33;;
20824;SDS011;10573;50.936;6.978;2022-08-19T06:08:29;41.60;;;29.55;;
20824;SDS011;10573;50.936;6.978;2022-08-19T06:10:55;39.20;;;29.40;;
20824;SDS011;10573;50.936;6.978;2022-08-19T06:13:21;40.13;;;29.50;;
20824;SDS011;10573;50.936;6.978;2022-08-19T06:15:48;42.03;;;29.85;;
20824;SDS011;10573;50.936;6.978;2022-08-19T06:18:14;38.08;;;29.48;;
20824;SDS011;10573;50.936;6.978;2022-08-19T06:20:40;42.17;;;30.08;;
20824;SDS011;10573;50.936;6.978;2022-08-19T06:23:07;38.07;;;29.73;;
20824;SDS011;10573;50.936;6.978;2022-08-19T06:25:34;38.33;;;29.38;;
20824;SDS011;10573;50.936;6.978;2022-08-19T06:27:59;38.97;;;28.48;;
20824;SDS011;10573;50.936;6.978;2022-08-19T06:30:25;39.83;;;30.00;;
20824;SDS011;10573;50.936;6.978;2022-08-19T06:32:51;37.35;;;28.08;;
20824;SDS011;10573;50.936;6.978;2022-08-19T06:35:17;38.20;;;29.70;;
20824;SDS011;10573;50.936;6.978;2022-08-19T06:37:42;38.78;;;28.25;;
20824;SDS011;10573;50.936;6.978;2022-08-19T06:40:08;40.35;;;28.83;;
20824;SDS011;10573;50.936;6.978;2022-08-19T06:42:36;42.75;;;29.08;;
20824;SDS011;10573;50.936;6.978;2022-08-19T06:45:03;40.20;;;30.05;;
20824;SDS011;10573;50.936;6.978;2022-08-19T06:47:30;39.75;;;28.35;;
20824;SDS011;10573;50.936;6.978;2022-08-19T06:49:58;43.78;;;30.00;;
20824;SDS011;10573;50.936;6.978;2022-08-19T06:52:29;43.53;;;28.92;;
20824;SDS011;10573;50.936;6.978;2022-08-19T06:54:55;37.05;;;28.20;;
20824;SDS011;10573;50.936;6.978;2022-08-19T06:57:23;38.15;;;28.30;;
20824;SDS011;10573;50.936;6.978;2022-08-19T06:59:49;35.95;;;27.58;;
20824;SDS011;10573;50.936;6.978;2022-08-19T07:02:14;38.90;;;26.57;;
20824;SDS011;10573;50.936;6.978;2022-08-19T07:04:40;37.28;;;27.40;;
20824;SDS011;10573;50.936;6.978;2022-08-19T07:07:06;38.10;;;27.03;;
20824;SDS011;10573;50.936;6.978;2022-08-19T07:09:34;38.45;;;26.80;;
20824;SDS011;10573;50.936;6.978;2022-08-19T07:12:02;38.03;;;26.55;;
20824;SDS011;10573;50.936;6.978;2022-08-19T07:14:30;34.97;;;26.23;;
20824;SDS011;10573;50.936;6.978;2022-08-19T07:16:56;38.73;;;26.33;;
20824;SDS011;10573;50.936;6.978;2022-08-19T07:19:23;36.25;;;25.08;;
20824;SDS011;10573;50.936;6.978;2022-08-19T07:21:52;36.72;;;26.42;;
20824;SDS011;10573;50.936;6.978;2022-08-19T07:24:19;36.58;;;25.75;;
20824;SDS011;10573;50.936;6.978;2022-08-19T07:26:49;38.50;;;26.27;;
20824;SDS011;10573;50.936;6.978;2022-08-19T07:29:15;34.97;;;24.83;;
20824;SDS011;10573;50.936;6.978;2022-08-19T07:31:42;33.50;;;23.80;;
20824;SDS011;10573;50.936;6.978;2022-08-19T07:34:08;35.97;;;26.37;;
20824;SDS011;10573;50.936;6.978;2022-08-19T07:36:36;33.55;;;24.42;;
20824;SDS011;10573;50.936;6.978;2022-08-19T07:39:08;30.65;;;21.52;;
20824;SDS011;10573;50.936;6.978;2022-08-19T07:41:37;28.88;;;22.48;;
20824;SDS011;10573;50.936;6.978;2022-08-19T07:44:03;33.23;;;22.10;;
20824;SDS011;10573;50.936;6.978;2022-08-19T07:46:35;31.73;;;22.73;;
20824;SDS011;10573;50.936;6.978;2022-08-19T07:49:03;35.88;;;23.67;;
20824;SDS011;10573;50.936;6.978;2022-08-19T07:51:29;36.10;;;23.38;;
20824;SDS011;10573;50.936;6.978;2022-08-19T07:53:55;32.77;;;22.77;;
20824;SDS011;10573;50.936;6.978;2022-08-19T07:56:21;31.42;;;22.58;;
20824;SDS011;10573;50.936;6.978;2022-08-19T07:58:48;30.30;;;22.87;;
20824;SDS011;10573;50.936;6.978;2022-08-19T08:01:21;31.25;;;22.25;;
20824;SDS011;10573;50.936;6.978;2022-08-19T08:03:50;29.80;;;22.60;;
20824;SDS011;10573;50.936;6.978;2022-08-19T08:06:36;31.70;;;23.88;;
20824;SDS011;10573;50.936;6.978;2022-08-19T08:09:31;35.47;;;24.95;;
20824;SDS011;10573;50.936;6.978;2022-08-19T08:12:03;38.17;;;26.33;;
20824;SDS011;10573;50.936;6.978;2022-08-19T08:14:33;40.60;;;27.52;;
20824;SDS011;10573;50.936;6.978;2022-08-19T08:17:04;41.22;;;27.85;;
20824;SDS011;10573;50.936;6.978;2022-08-19T08:19:31;40.78;;;27.42;;
20824;SDS011;10573;50.936;6.978;2022-08-19T08:21:57;45.35;;;30.45;;
20824;SDS011;10573;50.936;6.978;2022-08-19T08:24:24;45.15;;;28.30;;
20824;SDS011;10573;50.936;6.978;2022-08-19T08:26:51;46.33;;;30.25;;
20824;SDS011;10573;50.936;6.978;2022-08-19T08:29:17;46.00;;;31.27;;
20824;SDS011;10573;50.936;6.978;2022-08-19T08:31:44;45.72;;;30.45;;
20824;SDS011;10573;50.936;6.978;2022-08-19T08:34:11;45.22;;;30.38;;
20824;SDS011;10573;50.936;6.978;2022-08-19T08:36:41;44.47;;;29.67;;
20824;SDS011;10573;50.936;6.978;2022-08-19T08:39:11;44.42;;;29.13;;
20824;SDS011;10573;50.936;6.978;2022-08-19T08:44:20;44.78;;;31.67;;
20824;SDS011;10573;50.936;6.978;2022-08-19T08:46:49;49.20;;;33.28;;
20824;SDS011;10573;50.936;6.978;2022-08-19T08:52:25;54.03;;;36.00;;
20824;SDS011;10573;50.936;6.978;2022-08-19T08:54:54;55.00;;;37.15;;
20824;SDS011;10573;50.936;6.978;2022-08-19T08:57:26;52.55;;;35.70;;
20824;SDS011;10573;50.936;6.978;2022-08-19T08:59:56;54.35;;;36.22;;
20824;SDS011;10573;50.936;6.978;2022-08-19T09:02:25;50.67;;;35.10;;
20824;SDS011;10573;50.936;6.978;2022-08-19T09:04:51;54.30;;;36.50;;
20824;SDS011;10573;50.936;6.978;2022-08-19T09:07:22;52.35;;;34.63;;
20824;SDS011;10573;50.936;6.978;2022-08-19T09:09:51;52.55;;;36.65;;
20824;SDS011;10573;50.936;6.978;2022-08-19T09:12:23;52.25;;;36.20;;
20824;SDS011;10573;50.936;6.978;2022-08-19T09:15:07;52.65;;;34.08;;
20824;SDS011;10573;50.936;6.978;2022-08-19T09:17:35;53.75;;;35.88;;
20824;SDS011;10573;50.936;6.978;2022-08-19T09:22:36;48.03;;;33.70;;
20824;SDS011;10573;50.936;6.978;2022-08-19T09:25:02;43.78;;;29.60;;
20824;SDS011;10573;50.936;6.978;2022-08-19T09:27:29;42.00;;;30.40;;
20824;SDS011;10573;50.936;6.978;2022-08-19T09:29:56;44.65;;;30.88;;
20824;SDS011;10573;50.936;6.978;2022-08-19T09:32:23;39.40;;;29.47;;
20824;SDS011;10573;50.936;6.978;2022-08-19T09:34:49;42.78;;;29.85;;
20824;SDS011;10573;50.936;6.978;2022-08-19T09:37:14;39.67;;;28.20;;
20824;SDS011;10573;50.936;6.978;2022-08-19T09:39:40;39.23;;;28.80;;
20824;SDS011;10573;50.936;6.978;2022-08-19T09:42:08;36.25;;;26.70;;
20824;SDS011;10573;50.936;6.978;2022-08-19T09:44:37;35.17;;;24.23;;
20824;SDS011;10573;50.936;6.978;2022-08-19T09:47:04;35.38;;;24.40;;
20824;SDS011;10573;50.936;6.978;2022-08-19T09:49:30;36.93;;;25.40;;
20824;SDS011;10573;50.936;6.978;2022-08-19T09:51:56;30.23;;;23.47;;
20824;SDS011;10573;50.936;6.978;2022-08-19T09:54:21;29.97;;;21.77;;
20824;SDS011;10573;50.936;6.978;2022-08-19T09:56:48;38.60;;;23.70;;
20824;SDS011;10573;50.936;6.978;2022-08-19T09:59:13;39.60;;;20.70;;
20824;SDS011;10573;50.936;6.978;2022-08-19T10:01:39;40.13;;;22.30;;
20824;SDS011;10573;50.936;6.978;2022-08-19T10:04:04;28.08;;;20.85;;
20824;SDS011;10573;50.936;6.978;2022-08-19T10:06:34;29.75;;;19.90;;
20824;SDS011;10573;50.936;6.978;2022-08-19T10:09:02;29.02;;;18.27;;
20824;SDS011;10573;50.936;6.978;2022-08-19T10:11:29;27.27;;;18.52;;
20824;SDS011;10573;50.936;6.978;2022-08-19T10:13:55;20.55;;;16.35;;
20824;SDS011;10573;50.936;6.978;2022-08-19T10:16:21;21.58;;;15.57;;
20824;SDS011;10573;50.936;6.978;2022-08-19T10:18:48;20.65;;;14.45;;
20824;SDS011;10573;50.936;6.978;2022-08-19T10:21:25;18.20;;;13.13;;
20824;SDS011;10573;50.936;6.978;2022-08-19T10:23:53;20.40;;;14.65;;
20824;SDS011;10573;50.936;6.978;2022-08-19T10:26:24;15.90;;;11.65;;
20824;SDS011;10573;50.936;6.978;2022-08-19T10:28:52;14.80;;;12.18;;
20824;SDS011;10573;50.936;6.978;2022-08-19T10:31:19;15.98;;;13.02;;
20824;SDS011;10573;50.936;6.978;2022-08-19T10:33:48;18.35;;;13.40;;
20824;SDS011;10573;50.936;6.978;2022-08-19T10:36:17;17.63;;;14.43;;
20824;SDS011;10573;50.936;6.978;2022-08-19T10:38:44;21.55;;;14.02;;
20824;SDS011;10573;50.936;6.978;2022-08-19T10:41:22;19.35;;;14.60;;
20824;SDS011;10573;50.936;6.978;2022-08-19T10:43:53;20.57;;;15.17;;
20824;SDS011;10573;50.936;6.978;2022-08-19T10:46:21;19.48;;;15.10;;
20824;SDS011;10573;50.936;6.978;2022-08-19T10:48:48;18.45;;;14.77;;
20824;SDS011;10573;50.936;6.978;2022-08-19T10:51:14;19.23;;;14.52;;
20824;SDS011;10573;50.936;6.978;2022-08-19T10:53:59;19.90;;;13.20;;
20824;SDS011;10573;50.936;6.978;2022-08-19T10:56:26;17.17;;;14.00;;
20824;SDS011;10573;50.936;6.978;2022-08-19T10:59:10;25.55;;;14.82;;
20824;SDS011;10573;50.936;6.978;2022-08-19T11:01:38;20.33;;;15.33;;
20824;SDS011;10573;50.936;6.978;2022-08-19T11:04:04;20.30;;;15.73;;
20824;SDS011;10573;50.936;6.978;2022-08-19T11:06:33;19.87;;;15.77;;
20824;SDS011;10573;50.936;6.978;2022-08-19T11:08:58;22.67;;;16.73;;
20824;SDS011;10573;50.936;6.978;2022-08-19T11:11:25;22.08;;;17.05;;
20824;SDS011;10573;50.936;6.978;2022-08-19T11:13:51;23.67;;;17.38;;
20824;SDS011;10573;50.936;6.978;2022-08-19T11:16:22;22.23;;;18.20;;
20824;SDS011;10573;50.936;6.978;2022-08-19T11:18:53;20.03;;;14.40;;
20824;SDS011;10573;50.936;6.978;2022-08-19T11:23:57;20.48;;;15.82;;
20824;SDS011;10573;50.936;6.978;2022-08-19T11:26:25;13.75;;;12.25;;
20824;SDS011;10573;50.936;6.978;2022-08-19T11:28:51;16.45;;;13.85;;
20824;SDS011;10573;50.936;6.978;2022-08-19T11:31:20;14.40;;;12.70;;
20824;SDS011;10573;50.936;6.978;2022-08-19T11:33:48;14.73;;;12.25;;
20824;SDS011;10573;50.936;6.978;2022-08-19T11:36:17;12.18;;;10.98;;
20824;SDS011;10573;50.936;6.978;2022-08-19T11:38:47;12.50;;;10.68;;
20824;SDS011;10573;50.936;6.978;2022-08-19T11:41:15;13.18;;;10.98;;
20824;SDS011;10573;50.936;6.978;2022-08-19T11:43:42;12.02;;;10.20;;
20824;SDS011;10573;50.936;6.978;2022-08-19T11:46:08;12.10;;;10.73;;
20824;SDS011;10573;50.936;6.978;2022-08-19T11:48:37;14.70;;;11.55;;
20824;SDS011;10573;50.936;6.978;2022-08-19T11:51:13;15.43;;;10.30;;
20824;SDS011;10573;50.936;6.978;2022-08-19T11:53:41;13.32;;;8.85;;
20824;SDS011;10573;50.936;6.978;2022-08-19T11:56:07;11.00;;;8.98;;
20824;SDS011;10573;50.936;6.978;2022-08-19T11:58:34;9.45;;;8.55;;
20824;SDS011;10573;50.936;6.978;2022-08-19T12:01:00;11.93;;;8.88;;
20824;SDS011;10573;50.936;6.978;2022-08-19T12:03:25;11.55;;;9.32;;
20824;SDS011;10573;50.936;6.978;2022-08-19T12:05:52;10.35;;;8.52;;
20824;SDS011;10573;50.936;6.978;2022-08-19T12:08:18;9.03;;;8.13;;
20824;SDS011;10573;50.936;6.978;2022-08-19T12:10:44;8.33;;;7.53;;
20824;SDS011;10573;50.936;6.978;2022-08-19T12:13:10;9.57;;;8.27;;
20824;SDS011;10573;50.936;6.978;2022-08-19T12:15:43;8.85;;;7.35;;
20824;SDS011;10573;50.936;6.978;2022-08-19T12:18:10;10.15;;;7.20;;
20824;SDS011;10573;50.936;6.978;2022-08-19T12:20:39;8.70;;;7.75;;
20824;SDS011;10573;50.936;6.978;2022-08-19T12:23:06;9.80;;;7.50;;
20824;SDS011;10573;50.936;6.978;2022-08-19T12:25:34;8.33;;;7.27;;
20824;SDS011;10573;50.936;6.978;2022-08-19T12:28:00;8.53;;;6.70;;
20824;SDS011;10573;50.936;6.978;2022-08-19T12:30:26;7.43;;;6.40;;
20824;SDS011;10573;50.936;6.978;2022-08-19T12:32:52;9.13;;;6.20;;
20824;SDS011;10573;50.936;6.978;2022-08-19T12:35:17;8.60;;;7.00;;
20824;SDS011;10573;50.936;6.978;2022-08-19T12:37:45;7.75;;;6.78;;
20824;SDS011;10573;50.936;6.978;2022-08-19T12:40:12;6.18;;;5.57;;
20824;SDS011;10573;50.936;6.978;2022-08-19T12:42:39;6.30;;;5.78;;
20824;SDS011;10573;50.936;6.978;2022-08-19T12:45:10;7.43;;;6.00;;
20824;SDS011;10573;50.936;6.978;2022-08-19T12:47:37;9.88;;;6.35;;
20824;SDS011;10573;50.936;6.978;2022-08-19T12:50:04;8.20;;;7.25;;
20824;SDS011;10573;50.936;6.978;2022-08-19T12:52:31;9.85;;;7.35;;
20824;SDS011;10573;50.936;6.978;2022-08-19T12:54:57;8.45;;;7.10;;
20824;SDS011;10573;50.936;6.978;2022-08-19T12:57:23;12.50;;;8.23;;
20824;SDS011;10573;50.936;6.978;2022-08-19T12:59:53;10.35;;;8.50;;
20824;SDS011;10573;50.936;6.978;2022-08-19T13:02:19;10.25;;;8.18;;
20824;SDS011;10573;50.936;6.978;2022-08-19T13:04:45;7.90;;;7.10;;
20824;SDS011;10573;50.936;6.978;2022-08-19T13:07:11;8.75;;;7.40;;
20824;SDS011;10573;50.936;6.978;2022-08-19T13:09:36;7.45;;;6.75;;
20824;SDS011;10573;50.936;6.978;2022-08-19T13:12:02;8.63;;;7.00;;
20824;SDS011;10573;50.936;6.978;2022-08-19T13:14:32;8.00;;;6.05;;
20824;SDS011;10573;50.936;6.978;2022-08-19T13:16:59;11.05;;;7.38;;
20824;SDS011;10573;50.936;6.978;2022-08-19T13:19:25;8.88;;;6.97;;
20824;SDS011;10573;50.936;6.978;2022-08-19T13:21:51;7.10;;;6.40;;
20824;SDS011;10573;50.936;6.978;2022-08-19T13:24:18;7.23;;;5.97;;
20824;SDS011;10573;50.936;6.978;2022-08-19T13:26:44;11.13;;;6.03;;
20824;SDS011;10573;50.936;6.978;2022-08-19T13:29:09;7.50;;;6.60;;
20824;SDS011;10573;50.936;6.978;2022-08-19T13:31:53;6.63;;;5.80;;
20824;SDS011;10573;50.936;6.978;2022-08-19T13:34:37;6.28;;;5.68;;
20824;SDS011;10573;50.936;6.978;2022-08-19T13:37:02;8.77;;;6.00;;
20824;SDS011;10573;50.936;6.978;2022-08-19T13:39:30;7.80;;;5.13;;
20824;SDS011;10573;50.936;6.978;2022-08-19T13:41:57;6.13;;;5.47;;
20824;SDS011;10573;50.936;6.978;2022-08-19T13:44:24;9.70;;;6.43;;
20824;SDS011;10573;50.936;6.978;2022-08-19T13:46:50;9.48;;;6.10;;
20824;SDS011;10573;50.936;6.978;2022-08-19T13:49:17;7.40;;;5.72;;
20824;SDS011;10573;50.936;6.978;2022-08-19T13:51:43;5.82;;;4.90;;
20824;SDS011;10573;50.936;6.978;2022-08-19T13:54:10;8.40;;;5.20;;
20824;SDS011;10573;50.936;6.978;2022-08-19T13:56:44;5.72;;;4.93;;
20824;SDS011;10573;50.936;6.978;2022-08-19T13:59:10;8.02;;;5.10;;
20824;SDS011;10573;50.936;6.978;2022-08-19T14:01:36;5.60;;;5.00;;
20824;SDS011;10573;50.936;6.978;2022-08-19T14:04:02;6.68;;;5.05;;
20824;SDS011;10573;50.936;6.978;2022-08-19T14:06:28;6.63;;;5.00;;
20824;SDS011;10573;50.936;6.978;2022-08-19T14:08:54;6.20;;;5.60;;
20824;SDS011;10573;50.936;6.978;2022-08-19T14:11:19;9.75;;;5.70;;
20824;SDS011;10573;50.936;6.978;2022-08-19T14:13:45;5.90;;;5.23;;
20824;SDS011;10573;50.936;6.978;2022-08-19T14:16:11;5.77;;;4.87;;
20824;SDS011;10573;50.936;6.978;2022-08-19T14:18:38;6.72;;;4.65;;
20824;SDS011;10573;50.936;6.978;2022-08-19T14:21:04;5.00;;;4.50;;
20824;SDS011;10573;50.936;6.978;2022-08-19T14:23:31;7.00;;;4.32;;
20824;SDS011;10573;50.936;6.978;2022-08-19T14:26:04;6.47;;;4.73;;
20824;SDS011;10573;50.936;6.978;2022-08-19T14:28:32;6.80;;;5.00;;
20824;SDS011;10573;50.936;6.978;2022-08-19T14:30:57;8.40;;;5.30;;
20824;SDS011;10573;50.936;6.978;2022-08-19T14:33:22;6.90;;;5.55;;
20824;SDS011;10573;50.936;6.978;2022-08-19T14:35:48;9.77;;;5.40;;
20824;SDS011;10573;50.936;6.978;2022-08-19T14:38:17;8.23;;;5.30;;
20824;SDS011;10573;50.936;6.978;2022-08-19T14:40:43;8.10;;;5.20;;
20824;SDS011;10573;50.936;6.978;2022-08-19T14:43:09;5.80;;;5.00;;
20824;SDS011;10573;50.936;6.978;2022-08-19T14:45:36;7.43;;;4.87;;